地図

経路データ

SID SEASON NUMBER BASIN SUBBASIN NAME ISO_TIME NATURE LAT LON WMO_WIND WMO_PRES WMO_AGENCY TRACK_TYPE DIST2LAND LANDFALL IFLAG USA_AGENCY USA_ATCF_ID USA_LAT USA_LON USA_RECORD USA_STATUS USA_WIND USA_PRES USA_SSHS USA_R34_NE USA_R34_SE USA_R34_SW USA_R34_NW USA_R50_NE USA_R50_SE USA_R50_SW USA_R50_NW USA_R64_NE USA_R64_SE USA_R64_SW USA_R64_NW USA_POCI USA_ROCI USA_RMW USA_EYE TOKYO_LAT TOKYO_LON TOKYO_GRADE TOKYO_WIND TOKYO_PRES TOKYO_R50_DIR TOKYO_R50_LONG TOKYO_R50_SHORT TOKYO_R30_DIR TOKYO_R30_LONG TOKYO_R30_SHORT TOKYO_LAND CMA_LAT CMA_LON CMA_CAT CMA_WIND CMA_PRES HKO_LAT HKO_LON HKO_CAT HKO_WIND HKO_PRES NEWDELHI_LAT NEWDELHI_LON NEWDELHI_GRADE NEWDELHI_WIND NEWDELHI_PRES NEWDELHI_CI NEWDELHI_DP NEWDELHI_POCI REUNION_LAT REUNION_LON REUNION_TYPE REUNION_WIND REUNION_PRES REUNION_TNUM REUNION_CI REUNION_RMW REUNION_R34_NE REUNION_R34_SE REUNION_R34_SW REUNION_R34_NW REUNION_R50_NE REUNION_R50_SE REUNION_R50_SW REUNION_R50_NW REUNION_R64_NE REUNION_R64_SE REUNION_R64_SW REUNION_R64_NW BOM_LAT BOM_LON BOM_TYPE BOM_WIND BOM_PRES BOM_TNUM BOM_CI BOM_RMW BOM_R34_NE BOM_R34_SE BOM_R34_SW BOM_R34_NW BOM_R50_NE BOM_R50_SE BOM_R50_SW BOM_R50_NW BOM_R64_NE BOM_R64_SE BOM_R64_SW BOM_R64_NW BOM_ROCI BOM_POCI BOM_EYE BOM_POS_METHOD BOM_PRES_METHOD NADI_LAT NADI_LON NADI_CAT NADI_WIND NADI_PRES WELLINGTON_LAT WELLINGTON_LON WELLINGTON_WIND WELLINGTON_PRES DS824_LAT DS824_LON DS824_STAGE DS824_WIND DS824_PRES TD9636_LAT TD9636_LON TD9636_STAGE TD9636_WIND TD9636_PRES TD9635_LAT TD9635_LON TD9635_WIND TD9635_PRES TD9635_ROCI NEUMANN_LAT NEUMANN_LON NEUMANN_CLASS NEUMANN_WIND NEUMANN_PRES MLC_LAT MLC_LON MLC_CLASS MLC_WIND MLC_PRES USA_GUST BOM_GUST BOM_GUST_PER REUNION_GUST REUNION_GUST_PER USA_SEAHGT USA_SEARAD_NE USA_SEARAD_SE USA_SEARAD_SW USA_SEARAD_NW STORM_SPEED STORM_DIR
1979260N16312 1979 90 NA NA NOT_NAMED 1979-09-16 12:00:00 TS 15.6000 -48.5000 20 hurdat_atl main 1245 1241 O_____________ hurdat_atl AL161979 15.6000 -48.5000 TD 20 -1 9 311
1979260N16312 1979 90 NA NA NOT_NAMED 1979-09-16 15:00:00 TS 15.8825 -48.8349 main 1265 1260 P_____________ AL161979 15.8825 -48.8349 TD 20 -1 9 312
1979260N16312 1979 90 NA NA NOT_NAMED 1979-09-16 18:00:00 TS 16.2000 -49.2000 20 hurdat_atl main 1275 1275 O_____________ hurdat_atl AL161979 16.2000 -49.2000 TD 20 -1 10 313
1979260N16312 1979 90 NA NA NOT_NAMED 1979-09-16 21:00:00 TS 16.5775 -49.6075 main 1298 1294 P_____________ AL161979 16.5775 -49.6075 TD 22 -1 11 316
1979260N16312 1979 90 NA NA NOT_NAMED 1979-09-17 00:00:00 TS 17.0000 -50.0000 25 hurdat_atl main 1324 1324 O_____________ hurdat_atl AL161979 17.0000 -50.0000 TD 25 -1 11 321
1979260N16312 1979 90 NA NA NOT_NAMED 1979-09-17 03:00:00 TS 17.4274 -50.3301 main 1355 1355 P_____________ AL161979 17.4274 -50.3301 TD 25 -1 11 328
1979260N16312 1979 90 NA NA NOT_NAMED 1979-09-17 06:00:00 TS 17.9000 -50.6000 25 hurdat_atl main 1380 1377 O_____________ hurdat_atl AL161979 17.9000 -50.6000 TD 25 -1 11 336
1979260N16312 1979 90 NA NA NOT_NAMED 1979-09-17 09:00:00 TS 18.4574 -50.8077 main 1402 1400 P_____________ AL161979 18.4574 -50.8077 TD 25 -1 12 341
1979260N16312 1979 90 NA NA NOT_NAMED 1979-09-17 12:00:00 TS 19.0000 -51.0000 25 hurdat_atl main 1420 1419 O_____________ hurdat_atl AL161979 19.0000 -51.0000 TD 25 -1 11 335
1979260N16312 1979 90 NA NA NOT_NAMED 1979-09-17 15:00:00 TS 19.4076 -51.2725 main 1425 1424 P_____________ AL161979 19.4076 -51.2725 TD 25 -1 9 329
1979260N16312 1979 90 NA NA NOT_NAMED 1979-09-17 18:00:00 TS 19.8000 -51.5000 25 hurdat_atl main 1440 1440 O_____________ hurdat_atl AL161979 19.8000 -51.5000 TD 25 -1 9 342
1979260N16312 1979 90 NA NA NOT_NAMED 1979-09-17 21:00:00 TS 20.2924 -51.5877 main 1471 1471 P_____________ AL161979 20.2924 -51.5877 TD 25 -1 10 354
1979260N16312 1979 90 NA NA NOT_NAMED 1979-09-18 00:00:00 TS 20.8000 -51.6000 25 hurdat_atl main 1490 1490 O_____________ hurdat_atl AL161979 20.8000 -51.6000 TD 25 -1 10 359
1979260N16312 1979 90 NA NA NOT_NAMED 1979-09-18 03:00:00 TS 21.2725 -51.6001 main 1499 1499 P_____________ AL161979 21.2725 -51.6001 TD 27 -1 9 0
1979260N16312 1979 90 NA NA NOT_NAMED 1979-09-18 06:00:00 TS 21.7000 -51.6000 30 hurdat_atl main 1507 1504 O_____________ hurdat_atl AL161979 21.7000 -51.6000 TD 30 -1 8 356
1979260N16312 1979 90 NA NA NOT_NAMED 1979-09-18 09:00:00 TS 22.0725 -51.6574 main 1507 1507 P_____________ AL161979 22.0725 -51.6574 TD 30 -1 7 353
1979260N16312 1979 90 NA NA NOT_NAMED 1979-09-18 12:00:00 TS 22.4000 -51.7000 30 hurdat_atl main 1515 1515 O_____________ hurdat_atl AL161979 22.4000 -51.7000 TD 30 -1 5 0
1979260N16312 1979 90 NA NA NOT_NAMED 1979-09-18 15:00:00 TS 22.5576 -51.6576 main 1520 1520 P_____________ AL161979 22.5576 -51.6576 TD 30 -1 6 8
1979260N16312 1979 90 NA NA NOT_NAMED 1979-09-18 18:00:00 TS 23.0000 -51.6000 30 hurdat_atl main 1543 1543 O_____________ hurdat_atl AL161979 23.0000 -51.6000 TD 30 -1 17 2
1979260N16312 1979 90 NA NA NOT_NAMED 1979-09-18 21:00:00 TS 24.2401 -51.5997 main 1587 1587 P_____________ AL161979 24.2401 -51.5997 TD 30 -1 26 0
1979260N16312 1979 90 NA NA NOT_NAMED 1979-09-19 00:00:00 TS 25.6000 -51.6000 30 hurdat_atl main 1650 1650 O_____________ hurdat_atl AL161979 25.6000 -51.6000 TD 30 -1 21 1
1979260N16312 1979 90 NA NA NOT_NAMED 1979-09-19 03:00:00 TS 26.3599 -51.5502 main 1692 1692 P_____________ AL161979 26.3599 -51.5502 TD 30 -1 14 4
1979260N16312 1979 90 NA NA NOT_NAMED 1979-09-19 06:00:00 TS 27.0000 -51.5000 30 hurdat_atl main 1734 1734 O_____________ hurdat_atl AL161979 27.0000 -51.5000 TD 30 -1 15 2
1979260N16312 1979 90 NA NA NOT_NAMED 1979-09-19 09:00:00 TS 27.9000 -51.4923 main 1787 1787 P_____________ AL161979 27.9000 -51.4923 TD 30 -1 18 1
1979260N16312 1979 90 NA NA NOT_NAMED 1979-09-19 12:00:00 TS 28.8000 -51.5000 30 hurdat_atl main 1844 1844 O_____________ hurdat_atl AL161979 28.8000 -51.5000 TD 30 -1 16 360
1979260N16312 1979 90 NA NA NOT_NAMED 1979-09-19 15:00:00 TS 29.4925 -51.5219 main 1891 1831 P_____________ AL161979 29.4925 -51.5219 TD 30 -1 14 0
1979260N16312 1979 90 NA NA NOT_NAMED 1979-09-19 18:00:00 TS 30.2000 -51.5000 30 hurdat_atl main 1831 1732 O_____________ hurdat_atl AL161979 30.2000 -51.5000 TD 30 -1 16 5
1979260N16312 1979 90 NA NA NOT_NAMED 1979-09-19 21:00:00 TS 31.1126 -51.3656 main 1732 1634 P_____________ AL161979 31.1126 -51.3656 TD 30 -1 19 8
1979260N16312 1979 90 NA NA NOT_NAMED 1979-09-20 00:00:00 TS 32.1000 -51.2000 30 hurdat_atl main 1622 1524 O_____________ hurdat_atl AL161979 32.1000 -51.2000 TD 30 -1 20 6
1979260N16312 1979 90 NA NA NOT_NAMED 1979-09-20 03:00:00 TS 33.0498 -51.1211 main 1524 1425 P_____________ AL161979 33.0498 -51.1211 TD 30 -1 19 5
1979260N16312 1979 90 NA NA NOT_NAMED 1979-09-20 06:00:00 TS 34.0000 -51.0000 30 hurdat_atl main 1414 1317 O_____________ hurdat_atl AL161979 34.0000 -51.0000 TD 30 -1 20 10
1979260N16312 1979 90 NA NA NOT_NAMED 1979-09-20 09:00:00 TS 35.0027 -50.7163 main 1307 1212 P_____________ AL161979 35.0027 -50.7163 TD 27 -1 20 14
1979260N16312 1979 90 NA NA NOT_NAMED 1979-09-20 12:00:00 TS 35.9000 -50.4000 25 hurdat_atl main 1212 1150 O_____________ hurdat_atl AL161979 35.9000 -50.4000 TD 25 -1 16 15
1979260N16312 1979 90 NA NA NOT_NAMED 1979-09-20 15:00:00 TS 36.4995 -50.2269 main 1150 1088 P_____________ AL161979 36.4995 -50.2269 TD 25 -1 12 15
1979260N16312 1979 90 NA NA NOT_NAMED 1979-09-20 18:00:00 TS 37.1000 -50.0000 25 hurdat_atl main 1088 1000 O_____________ hurdat_atl AL161979 37.1000 -50.0000 TD 25 -1 16 19
1979260N16312 1979 90 NA NA NOT_NAMED 1979-09-20 21:00:00 TS 38.0504 -49.5399 main 992 911 P_____________ AL161979 38.0504 -49.5399 TD 25 -1 21 23
1979260N16312 1979 90 NA NA NOT_NAMED 1979-09-21 00:00:00 TS 39.0000 -49.0000 25 hurdat_atl main 911 862 O_____________ hurdat_atl AL161979 39.0000 -49.0000 TD 25 -1 18 26
1979260N16312 1979 90 NA NA NOT_NAMED 1979-09-21 03:00:00 TS 39.6220 -48.5544 main 862 821 P_____________ AL161979 39.6220 -48.5544 TD 25 -1 14 30
1979260N16312 1979 90 NA NA NOT_NAMED 1979-09-21 06:00:00 TS 40.2000 -48.1000 25 hurdat_atl main 821 775 O_____________ hurdat_atl AL161979 40.2000 -48.1000 TD 25 -1 15 29
1979260N16312 1979 90 NA NA NOT_NAMED 1979-09-21 09:00:00 TS 40.9433 -47.5770 main 775 725 P_____________ AL161979 40.9433 -47.5770 TD 22 -1 18 27
1979260N16312 1979 90 NA NA NOT_NAMED 1979-09-21 12:00:00 TS 41.8000 -47.0000 20 hurdat_atl main 725 O_____________ hurdat_atl AL161979 41.8000 -47.0000 TD 20 -1 19 27

IBTrACS Databaseについて

本データベースは、米国NOAAが公開する1842年以降の世界の熱帯低気圧のベストトラックデータアーカイブInternational Best Track Archive for Climate Stewardship (IBTrACS)を、ウェブで閲覧しやすい形式に変換したものです。

最終更新日:2021-10-25